Jordan Valley WCD
8215 S 1300 W, West Jordan
Last Weather Update:04/16/2012 10:00:00 AM
Date
ETo
ETc
Rain
Irrigation
Req
Temp
Max
Temp
Min
Temp
Avg
Avg RH
Avg Wind
Avg Solar
inches
inches
incehs
inches
F
F
F
%
%
watts/m2
03/01/2012 0.04" 0.00" 0.24" -0.19" 41.1° 25.9° 30.9° 75.7% 3.4 MPH 106.0w/m2
03/02/2012 0.03" 0.00" 0.39" -0.31" 35.2° 22.4° 27.3° 73.4% 2.7 MPH 113.1w/m2
03/03/2012 0.05" 0.00" 0.00" 0.00" 38.4° 25.0° 32.1° 58.5% 5.4 MPH 98.3w/m2
03/04/2012 0.08" 0.00" 0.00" 0.00" 56.5° 30.2° 41.1° 55.5% 4.1 MPH 169.2w/m2
03/05/2012 0.11" 0.00" 0.00" 0.00" 64.0° 33.2° 47.8° 47.2% 5.6 MPH 160.2w/m2
03/06/2012 0.10" 0.00" 0.00" 0.00" 59.1° 26.1° 46.0° 46.8% 9.0 MPH 64.0w/m2
03/07/2012 0.07" 0.00" 0.02" -0.02" 41.0° 25.3° 31.7° 66.0% 7.7 MPH 182.2w/m2
03/08/2012 0.08" 0.00" 0.00" 0.00" 49.4° 24.2° 35.0° 56.5% 3.6 MPH 173.3w/m2
03/09/2012 0.08" 0.00" 0.00" 0.00" 54.4° 21.0° 36.4° 62.3% 1.3 MPH 171.2w/m2
03/10/2012 0.09" 0.00" 0.00" 0.00" 60.3° 23.0° 40.6° 59.3% 1.6 MPH 172.2w/m2
03/11/2012 0.14" 0.00" 0.00" 0.00" 65.9° 30.7° 48.8° 42.4% 5.8 MPH 166.1w/m2
03/12/2012 0.18" 0.00" 0.00" 0.00" 67.1° 45.4° 56.1° 24.7% 8.9 MPH 178.7w/m2
03/13/2012 0.18" 0.00" 0.00" 0.00" 65.3° 52.5° 58.5° 20.1% 10.2 MPH 121.4w/m2
03/14/2012 0.13" 0.00" 0.00" 0.00" 64.0° 50.3° 56.7° 28.1% 6.9 MPH 80.4w/m2
03/15/2012 0.15" 0.00" 0.00" 0.00" 70.5° 44.9° 57.3° 36.6% 4.5 MPH 165.2w/m2
03/16/2012 0.16" 0.00" 0.00" 0.00" 68.5° 50.1° 59.3° 30.9% 8.3 MPH 91.4w/m2
03/17/2012 0.18" 0.00" 0.00" 0.00" 63.6° 49.9° 57.7° 35.0% 10.0 MPH 82.4w/m2
03/18/2012 0.05" 0.00" 0.22" -0.18" 50.9° 31.4° 39.2° 75.9% 8.0 MPH 71.1w/m2
03/19/2012 0.07" 0.00" 0.10" -0.08" 42.6° 28.1° 34.6° 72.6% 2.9 MPH 158.6w/m2
03/20/2012 0.08" 0.00" 0.07" -0.06" 47.4° 22.2° 35.0° 68.3% 3.5 MPH 192.2w/m2
03/21/2012 0.13" 0.00" 0.00" 0.00" 61.5° 40.0° 48.8° 45.9% 5.5 MPH 196.6w/m2
03/22/2012 0.17" 0.00" 0.00" 0.00" 71.1° 40.3° 55.4° 38.6% 6.7 MPH 196.1w/m2
03/23/2012 0.17" 0.00" 0.00" 0.00" 71.9° 52.7° 61.6° 27.6% 7.8 MPH 129.3w/m2
03/24/2012 0.16" 0.00" 0.00" 0.00" 72.0° 51.1° 60.3° 32.7% 6.1 MPH 153.9w/m2
03/25/2012 0.15" 0.00" 0.00" 0.00" 71.0° 46.6° 60.5° 30.4% 5.4 MPH 133.3w/m2
03/26/2012 0.09" 0.00" 0.00" 0.00" 55.8° 36.9° 48.0° 44.4% 6.5 MPH 114.3w/m2
03/27/2012 0.11" 0.00" 0.00" 0.00" 61.6° 37.1° 49.2° 41.6% 5.1 MPH 127.2w/m2
03/28/2012 0.14" 0.00" 0.00" 0.00" 67.5° 44.3° 53.8° 42.8% 5.1 MPH 139.1w/m2
03/29/2012 0.09" 0.00" 0.00" 0.00" 62.4° 34.4° 48.1° 68.4% 3.4 MPH 130.6w/m2
03/30/2012 0.12" 0.00" 0.00" 0.00" 73.1° 39.6° 55.6° 51.3% 3.1 MPH 171.1w/m2
03/31/2012 0.24" 0.00" 0.00" 0.00" 78.0° 48.2° 64.1° 32.8% 9.5 MPH 216.3w/m2
Totals: 3.63" 0.00" 1.04" -0.83" 78.0° 21.0° 47.7° 48.1% 5.7 MPH 142.7w/m2